Time;durP1;ratioP1;P1;durP2;ratioP2;P2;SDS_P1;SDS_P2;PMS_P1;PMS_P2;Temp;Humidity;BMP_temperature;BMP_pressure;BME280_temperature;BME280_humidity;BME280_pressure;Samples;Min_cycle;Max_cycle;Signal;HPM_P1;HPM_P2
2022/09/13 00:00:40;;;;;;;2.33;1.87;;;11.00;99.90;;;;;;5103405;27;20440;-81
2022/09/13 00:03:07;;;;;;;5.23;2.03;;;11.00;99.90;;;;;;5101232;27;20449;-79
2022/09/13 00:05:35;;;;;;;2.30;1.80;;;11.00;99.90;;;;;;5107284;27;20464;-82
2022/09/13 00:08:04;;;;;;;2.20;2.00;;;11.00;99.90;;;;;;5107138;27;20478;-81
2022/09/13 00:10:33;;;;;;;2.20;1.87;;;10.90;99.90;;;;;;5106680;28;20507;-80
2022/09/13 00:13:00;;;;;;;2.40;2.20;;;11.00;99.90;;;;;;5104746;27;20453;-82
2022/09/13 00:15:28;;;;;;;4.30;2.20;;;10.90;99.90;;;;;;5102530;27;20463;-80
2022/09/13 00:17:55;;;;;;;2.67;2.47;;;10.90;99.90;;;;;;5107948;27;20508;-83
2022/09/13 00:20:22;;;;;;;7.57;2.20;;;10.90;99.90;;;;;;5100346;27;21034;-80
2022/09/13 00:22:49;;;;;;;2.37;2.17;;;10.80;99.90;;;;;;5105711;27;20469;-80
2022/09/13 00:25:18;;;;;;;2.50;2.00;;;10.80;99.90;;;;;;5105670;27;20471;-80
2022/09/13 00:27:45;;;;;;;1.70;1.40;;;10.70;99.90;;;;;;5102710;27;20494;-81
2022/09/13 00:30:13;;;;;;;3.00;2.43;;;10.70;99.90;;;;;;5103971;27;20477;-80
2022/09/13 00:32:40;;;;;;;2.03;1.60;;;10.70;99.90;;;;;;5102135;27;20457;-81
2022/09/13 00:35:08;;;;;;;2.27;1.60;;;10.60;99.90;;;;;;5105078;27;20449;-80
2022/09/13 00:37:35;;;;;;;3.20;2.33;;;10.60;99.90;;;;;;5109207;27;20967;-82
2022/09/13 00:40:03;;;;;;;3.63;1.43;;;10.60;99.90;;;;;;5106050;27;20501;-81
2022/09/13 00:42:33;;;;;;;3.80;2.63;;;10.50;99.90;;;;;;5101777;27;20456;-83
2022/09/13 00:45:01;;;;;;;2.17;1.63;;;10.50;99.90;;;;;;5106650;27;20607;-81
2022/09/13 00:47:34;;;;;;;1.83;1.73;;;10.50;99.90;;;;;;5106166;27;21003;-80
2022/09/13 00:50:07;;;;;;;9.43;2.27;;;10.50;99.90;;;;;;5097842;27;21020;-80
2022/09/13 00:52:37;;;;;;;1.33;1.20;;;10.40;99.90;;;;;;5103881;28;20992;-80
2022/09/13 00:55:11;;;;;;;4.03;2.93;;;10.50;99.90;;;;;;5104383;27;20835;-80
2022/09/13 00:57:40;;;;;;;4.00;3.70;;;10.60;99.90;;;;;;5109099;27;20488;-82
2022/09/13 01:00:11;;;;;;;4.13;1.57;;;10.60;99.90;;;;;;5103846;27;20439;-81
2022/09/13 01:02:40;;;;;;;2.10;1.83;;;10.40;99.90;;;;;;5107641;27;20451;-82
2022/09/13 01:05:08;;;;;;;2.97;2.40;;;10.40;99.90;;;;;;5102592;27;21034;-81
2022/09/13 01:07:35;;;;;;;2.40;2.20;;;10.40;99.90;;;;;;5096790;28;20507;-83
2022/09/13 01:10:06;;;;;;;2.40;2.20;;;10.40;99.90;;;;;;5104520;27;20500;-81
2022/09/13 01:12:39;;;;;;;3.33;2.07;;;10.40;99.90;;;;;;5104598;28;20459;-81
2022/09/13 01:15:08;;;;;;;1.70;1.60;;;10.30;99.90;;;;;;5105456;28;20539;-80
2022/09/13 01:17:38;;;;;;;2.13;1.73;;;10.40;99.90;;;;;;5103183;27;20527;-84
2022/09/13 01:20:07;;;;;;;2.30;1.30;;;10.40;99.90;;;;;;5102289;27;20453;-82
2022/09/13 01:23:11;;;;;;;1.80;1.13;;;10.30;99.90;;;;;;5099671;27;20530;-81
2022/09/13 01:26:29;;;;;;;3.03;2.20;;;10.20;99.90;;;;;;5104761;27;20504;-80
2022/09/13 01:29:30;;;;;;;3.73;1.70;;;10.20;99.90;;;;;;5029372;28;20588;-81
2022/09/13 01:32:08;;;;;;;2.37;2.03;;;10.20;99.90;;;;;;5108080;27;20939;-80
2022/09/13 01:34:47;;;;;;;1.57;1.47;;;10.10;99.90;;;;;;5104418;27;20499;-81
2022/09/13 01:37:31;;;;;;;2.50;2.07;;;10.10;99.90;;;;;;5097129;28;20513;-82
2022/09/13 01:40:05;;;;;;;3.93;3.37;;;10.20;99.90;;;;;;5102163;27;20459;-80
2022/09/13 01:42:46;;;;;;;4.60;2.20;;;10.20;99.90;;;;;;5100154;28;20450;-81
2022/09/13 01:45:22;;;;;;;2.57;2.20;;;10.20;99.90;;;;;;5104172;27;20457;-83
2022/09/13 01:47:55;;;;;;;2.57;1.60;;;10.20;99.90;;;;;;5108650;27;20484;-83
2022/09/13 01:50:32;;;;;;;4.20;2.57;;;10.10;99.90;;;;;;5104856;27;20451;-83
2022/09/13 01:53:05;;;;;;;6.90;2.60;;;10.20;99.90;;;;;;5105978;27;21000;-83
2022/09/13 01:55:36;;;;;;;4.00;2.17;;;10.20;99.90;;;;;;5108712;27;20973;-82
2022/09/13 01:58:16;;;;;;;6.43;1.87;;;10.20;99.90;;;;;;5102460;27;20460;-80
2022/09/13 02:00:50;;;;;;;5.90;2.33;;;10.10;99.90;;;;;;5107979;28;20960;-81
2022/09/13 02:03:23;;;;;;;1.80;1.50;;;10.10;99.90;;;;;;5122999;27;20497;-83
2022/09/13 02:05:55;;;;;;;2.70;1.60;;;10.00;99.90;;;;;;5129799;28;20438;-82
2022/09/13 02:08:32;;;;;;;5.90;1.60;;;10.00;99.90;;;;;;5114494;28;20492;-80
2022/09/13 02:11:04;;;;;;;3.60;1.50;;;10.00;99.90;;;;;;5094803;28;20950;-81
2022/09/13 02:13:37;;;;;;;4.10;2.67;;;9.90;99.90;;;;;;5110776;27;20586;-84
2022/09/13 02:16:10;;;;;;;1.20;1.10;;;10.00;99.90;;;;;;5108756;27;20457;-84
2022/09/13 02:18:41;;;;;;;1.67;1.10;;;9.90;99.90;;;;;;5104644;28;20458;-83
2022/09/13 02:21:12;;;;;;;1.97;1.77;;;9.90;99.90;;;;;;5106271;27;20546;-83
2022/09/13 02:23:43;;;;;;;1.70;1.60;;;9.90;99.90;;;;;;5098377;28;20454;-84
2022/09/13 02:26:14;;;;;;;2.07;1.67;;;9.80;99.90;;;;;;5105471;28;20522;-88
2022/09/13 02:28:47;;;;;;;3.00;2.50;;;9.90;99.90;;;;;;5102079;28;20475;-85
2022/09/13 02:31:18;;;;;;;13.90;5.00;;;9.80;99.90;;;;;;5102880;28;20993;-85
2022/09/13 02:33:52;;;;;;;12.93;5.27;;;9.80;99.90;;;;;;5109210;28;21167;-85
2022/09/13 02:36:23;;;;;;;7.67;3.87;;;9.70;99.90;;;;;;5105066;28;20487;-85
2022/09/13 02:38:55;;;;;;;5.00;2.53;;;9.70;99.90;;;;;;5105944;28;20549;-85
2022/09/13 02:41:28;;;;;;;3.20;2.67;;;9.70;99.90;;;;;;5103420;28;20474;-88
2022/09/13 02:44:03;;;;;;;2.27;2.07;;;9.70;99.90;;;;;;5104978;28;21131;-87
2022/09/13 02:46:43;;;;;;;2.67;2.07;;;9.90;99.90;;;;;;5105131;28;20531;-87
2022/09/13 02:49:20;;;;;;;1.70;1.60;;;9.90;99.90;;;;;;5103895;28;20482;-85
2022/09/13 02:51:54;;;;;;;1.77;1.47;;;9.90;99.90;;;;;;5108413;28;21115;-87
2022/09/13 02:54:28;;;;;;;1.90;1.80;;;9.90;99.90;;;;;;5104779;28;20445;-86
2022/09/13 02:57:01;;;;;;;2.73;2.20;;;9.90;99.90;;;;;;5104268;28;21116;-86
2022/09/13 02:59:28;;;;;;;3.80;2.30;;;9.80;99.90;;;;;;5108620;27;20454;-85
2022/09/13 03:01:59;;;;;;;1.70;1.43;;;9.70;99.90;;;;;;5105254;27;20522;-84
2022/09/13 03:04:29;;;;;;;2.23;2.03;;;9.60;99.90;;;;;;5108498;28;20506;-88
2022/09/13 03:06:56;;;;;;;1.73;1.63;;;9.60;99.90;;;;;;5108742;27;20458;-85
2022/09/13 03:09:23;;;;;;;1.73;1.47;;;9.50;99.90;;;;;;5110310;27;20482;-89
2022/09/13 03:12:07;;;;;;;3.37;2.33;;;9.50;99.90;;;;;;5105184;27;20986;-86
2022/09/13 03:14:45;;;;;;;1.23;1.13;;;9.50;99.90;;;;;;5107986;27;20463;-87
2022/09/13 03:17:23;;;;;;;6.00;1.53;;;9.40;99.90;;;;;;5109280;27;20434;-88
2022/09/13 03:20:17;;;;;;;2.13;1.50;;;9.40;99.90;;;;;;5108698;27;21006;-88
2022/09/13 03:23:06;;;;;;;2.73;1.90;;;9.50;99.90;;;;;;5099845;28;20992;-87
2022/09/13 03:25:50;;;;;;;1.50;1.40;;;9.60;99.90;;;;;;5103095;27;20467;-89
2022/09/13 03:28:24;;;;;;;5.43;2.10;;;9.60;99.90;;;;;;5107954;27;20478;-90
2022/09/13 03:31:02;;;;;;;3.30;2.60;;;9.50;99.90;;;;;;5106759;28;20494;-85
2022/09/13 03:33:34;;;;;;;2.00;1.80;;;9.60;99.90;;;;;;5106586;27;20514;-86
2022/09/13 03:36:10;;;;;;;1.93;1.83;;;9.60;99.90;;;;;;5105119;27;20450;-89
2022/09/13 03:38:41;;;;;;;1.73;1.63;;;9.60;99.90;;;;;;5105919;27;20461;-89
2022/09/13 03:41:11;;;;;;;2.50;1.77;;;9.50;99.90;;;;;;5103752;27;21059;-87
2022/09/13 03:43:44;;;;;;;1.50;1.20;;;9.50;99.90;;;;;;5110513;27;20502;-86
2022/09/13 03:46:15;;;;;;;1.40;1.30;;;9.50;99.90;;;;;;5105383;27;20532;-86
2022/09/13 03:48:43;;;;;;;2.50;1.93;;;9.40;99.90;;;;;;5104431;28;20501;-86
2022/09/13 03:51:12;;;;;;;2.43;1.70;;;9.40;99.90;;;;;;5108120;27;20438;-88
2022/09/13 03:53:42;;;;;;;2.40;2.00;;;9.40;99.90;;;;;;5102901;27;20946;-88
2022/09/13 03:56:14;;;;;;;2.17;1.73;;;9.30;99.90;;;;;;5102022;28;20507;-89
2022/09/13 03:58:41;;;;;;;3.17;2.30;;;9.30;99.90;;;;;;5101106;28;20455;-85
2022/09/13 04:01:09;;;;;;;2.40;2.20;;;9.40;99.90;;;;;;5106018;28;20458;-88
2022/09/13 04:03:36;;;;;;;2.20;2.00;;;9.30;99.90;;;;;;5103372;27;20442;-85
2022/09/13 04:06:03;;;;;;;3.20;1.30;;;9.30;99.90;;;;;;5107285;27;20987;-88
2022/09/13 04:08:32;;;;;;;1.80;1.63;;;9.30;99.90;;;;;;5104983;27;20475;-85
2022/09/13 04:11:00;;;;;;;2.30;2.10;;;9.20;99.90;;;;;;5102009;27;20462;-85
2022/09/13 04:13:28;;;;;;;1.90;1.40;;;9.30;99.90;;;;;;5105655;27;20454;-85
2022/09/13 04:15:55;;;;;;;2.40;2.10;;;9.30;99.90;;;;;;5105257;27;20459;-85
2022/09/13 04:18:23;;;;;;;4.63;2.70;;;9.30;99.90;;;;;;5105871;27;20888;-85
2022/09/13 04:20:57;;;;;;;2.03;1.70;;;9.30;99.90;;;;;;5104580;27;20485;-88
2022/09/13 04:23:25;;;;;;;2.70;2.17;;;9.20;99.90;;;;;;5100220;28;20550;-88
2022/09/13 04:25:54;;;;;;;2.00;1.83;;;9.20;99.90;;;;;;5101220;27;20549;-87
2022/09/13 04:28:23;;;;;;;1.50;1.40;;;9.10;99.90;;;;;;5104038;27;20480;-85
2022/09/13 04:30:50;;;;;;;3.63;1.97;;;9.10;99.90;;;;;;5104163;27;20482;-85
2022/09/13 04:33:17;;;;;;;1.53;1.43;;;9.10;99.90;;;;;;5100799;27;20470;-86
2022/09/13 04:35:44;;;;;;;2.57;1.70;;;9.10;99.90;;;;;;5094644;28;20796;-85
2022/09/13 04:38:11;;;;;;;1.50;1.40;;;9.20;99.90;;;;;;5099944;27;20446;-88
2022/09/13 04:40:39;;;;;;;1.73;1.63;;;9.20;99.90;;;;;;5105492;27;20474;-88
2022/09/13 04:43:07;;;;;;;3.90;1.43;;;9.10;99.90;;;;;;5105269;27;20541;-80
2022/09/13 04:45:34;;;;;;;1.67;1.27;;;9.10;99.90;;;;;;5102302;27;20571;-88
2022/09/13 04:48:02;;;;;;;1.20;1.00;;;9.20;99.90;;;;;;5103160;28;20450;-84
2022/09/13 04:50:29;;;;;;;2.27;1.67;;;9.20;99.90;;;;;;5103511;27;20474;-85
2022/09/13 04:52:56;;;;;;;1.90;1.50;;;9.30;99.90;;;;;;5100744;28;20658;-83
2022/09/13 04:55:25;;;;;;;2.17;1.70;;;9.40;99.90;;;;;;5103870;27;20465;-84
2022/09/13 04:57:55;;;;;;;2.27;2.07;;;9.40;99.90;;;;;;5098163;27;20459;-83
2022/09/13 05:00:25;;;;;;;1.97;1.87;;;9.50;99.90;;;;;;5104920;27;20550;-85
2022/09/13 05:02:55;;;;;;;5.93;3.77;;;9.60;99.90;;;;;;5110283;27;20557;-85
2022/09/13 05:05:24;;;;;;;2.87;2.67;;;9.70;99.90;;;;;;5101059;28;20454;-85
2022/09/13 05:07:51;;;;;;;1.73;1.63;;;9.60;99.90;;;;;;5104111;27;20467;-83
2022/09/13 05:10:19;;;;;;;1.67;1.57;;;9.60;99.90;;;;;;5105174;27;20462;-86
2022/09/13 05:12:46;;;;;;;1.67;1.50;;;9.60;99.90;;;;;;5130944;27;20496;-85
2022/09/13 05:15:13;;;;;;;4.00;1.30;;;9.70;99.90;;;;;;5126127;27;20478;-83
2022/09/13 05:17:41;;;;;;;3.00;2.63;;;9.80;99.90;;;;;;5111712;27;20454;-84
2022/09/13 05:20:09;;;;;;;5.53;2.57;;;9.90;99.90;;;;;;5110117;27;20993;-84
2022/09/13 05:22:36;;;;;;;3.60;1.97;;;10.00;99.90;;;;;;5106759;27;20824;-85
2022/09/13 05:25:03;;;;;;;3.03;2.23;;;10.10;99.90;;;;;;5100305;28;20912;-85
2022/09/13 05:27:30;;;;;;;4.70;2.10;;;10.20;99.90;;;;;;5104682;27;21283;-85
2022/09/13 05:29:57;;;;;;;1.57;1.47;;;10.30;99.90;;;;;;5104435;27;20577;-84
2022/09/13 05:32:24;;;;;;;2.90;2.20;;;10.20;99.90;;;;;;5108123;27;20458;-84
2022/09/13 05:34:52;;;;;;;2.57;2.37;;;10.30;99.90;;;;;;5103240;27;21116;-86
2022/09/13 05:37:19;;;;;;;3.57;2.40;;;10.30;99.90;;;;;;5104004;27;20519;-84
2022/09/13 05:39:46;;;;;;;5.53;2.87;;;10.40;99.90;;;;;;5104734;27;22352;-85
2022/09/13 05:42:13;;;;;;;2.80;2.50;;;10.40;99.90;;;;;;5103704;27;20552;-84
2022/09/13 05:44:40;;;;;;;4.53;2.03;;;10.30;99.90;;;;;;5106662;27;20453;-85
2022/09/13 05:47:07;;;;;;;3.67;2.57;;;10.30;99.90;;;;;;5107238;27;21155;-84
2022/09/13 05:49:34;;;;;;;4.97;2.80;;;10.50;99.90;;;;;;5104379;28;20505;-84
2022/09/13 05:52:03;;;;;;;3.20;2.90;;;10.70;99.90;;;;;;5106836;27;20490;-85
2022/09/13 05:54:30;;;;;;;3.90;3.00;;;10.80;99.90;;;;;;5100528;28;20973;-84
2022/09/13 05:56:57;;;;;;;3.07;2.87;;;10.80;99.90;;;;;;5107369;27;20953;-85
2022/09/13 05:59:24;;;;;;;2.87;1.90;;;10.90;99.90;;;;;;5105066;27;20493;-87
2022/09/13 06:01:51;;;;;;;2.43;2.23;;;10.90;99.90;;;;;;5105441;27;20940;-86
2022/09/13 06:04:18;;;;;;;2.60;2.40;;;10.90;99.90;;;;;;5110729;27;20449;-86
2022/09/13 06:06:45;;;;;;;2.20;2.03;;;11.00;99.90;;;;;;5102156;27;21357;-85
2022/09/13 06:09:13;;;;;;;3.03;2.70;;;11.30;99.90;;;;;;5102904;27;21066;-86
2022/09/13 06:11:40;;;;;;;4.23;2.97;;;11.50;99.90;;;;;;5113594;27;20467;-93
2022/09/13 06:14:08;;;;;;;7.23;3.23;;;11.50;99.90;;;;;;5099755;27;20980;-93
2022/09/13 06:16:35;;;;;;;3.40;2.33;;;11.50;99.90;;;;;;5106354;27;20461;-90
2022/09/13 06:19:02;;;;;;;3.97;3.30;;;11.60;99.90;;;;;;5111063;27;20464;-91
2022/09/13 06:21:29;;;;;;;2.40;2.20;;;11.70;99.90;;;;;;5100930;28;20929;-90
2022/09/13 06:23:57;;;;;;;2.40;2.20;;;11.80;99.90;;;;;;5098419;27;20459;-90
2022/09/13 06:26:27;;;;;;;3.00;2.77;;;12.00;99.90;;;;;;5103017;28;21064;-91
2022/09/13 06:28:56;;;;;;;3.90;3.23;;;12.00;99.90;;;;;;5101308;27;20553;-91
2022/09/13 06:31:24;;;;;;;4.77;4.20;;;12.20;99.90;;;;;;5097613;28;20456;-92
2022/09/13 06:33:57;;;;;;;4.10;3.33;;;12.30;99.90;;;;;;5100579;28;21159;-89
2022/09/13 06:36:24;;;;;;;3.90;3.30;;;12.30;99.90;;;;;;5097351;28;20861;-91
2022/09/13 06:38:52;;;;;;;4.30;3.63;;;12.40;99.90;;;;;;5103755;28;20445;-90
2022/09/13 06:41:22;;;;;;;3.80;3.50;;;12.60;99.90;;;;;;5102158;28;20559;-92
2022/09/13 06:43:53;;;;;;;5.07;4.57;;;12.80;99.90;;;;;;5103519;28;20991;-89
2022/09/13 06:46:20;;;;;;;4.00;3.70;;;12.80;99.90;;;;;;5099050;28;20556;-88
2022/09/13 06:48:48;;;;;;;10.70;4.07;;;12.90;99.90;;;;;;5102732;28;20461;-91
2022/09/13 06:51:17;;;;;;;6.97;3.67;;;13.00;99.90;;;;;;5103492;28;20786;-87
2022/09/13 06:53:45;;;;;;;4.97;3.80;;;13.20;99.90;;;;;;5103480;28;21051;-89
2022/09/13 06:56:15;;;;;;;6.67;3.93;;;13.30;99.90;;;;;;5100101;28;20855;-88
2022/09/13 06:58:43;;;;;;;4.57;4.17;;;13.50;99.90;;;;;;5104928;28;21038;-89
2022/09/13 07:01:13;;;;;;;4.70;3.73;;;13.60;99.90;;;;;;5097873;28;20466;-89
2022/09/13 07:03:43;;;;;;;4.30;3.30;;;13.80;99.90;;;;;;5106091;28;20490;-93
2022/09/13 07:06:14;;;;;;;4.63;3.37;;;14.00;99.90;;;;;;5119907;27;20845;-96
2022/09/13 07:08:45;;;;;;;8.07;3.60;;;14.20;99.90;;;;;;5107664;28;20461;-94
2022/09/13 07:11:17;;;;;;;4.07;3.63;;;14.50;99.90;;;;;;5117445;28;20470;-94
2022/09/13 07:13:49;;;;;;;3.00;2.70;;;14.40;99.90;;;;;;5110660;28;20725;-95
2022/09/13 07:16:21;;;;;;;3.00;2.70;;;14.50;99.90;;;;;;5113119;28;20453;-93
2022/09/13 07:18:53;;;;;;;3.90;3.47;;;14.50;99.90;;;;;;5120391;27;20525;-93
2022/09/13 07:21:22;;;;;;;3.33;3.00;;;14.70;99.90;;;;;;5116255;28;20486;-96
2022/09/13 07:23:52;;;;;;;4.33;2.87;;;14.80;99.90;;;;;;5100689;28;20464;-94
2022/09/13 07:26:20;;;;;;;5.70;4.57;;;14.90;99.90;;;;;;5107540;28;20483;-93
2022/09/13 07:28:50;;;;;;;4.17;3.30;;;15.10;99.90;;;;;;5125503;27;20447;-95
2022/09/13 07:31:21;;;;;;;5.20;3.50;;;15.20;99.90;;;;;;5120109;27;20482;-94
2022/09/13 07:33:54;;;;;;;6.13;3.10;;;15.20;99.90;;;;;;5112556;28;20468;-96
2022/09/13 07:36:22;;;;;;;3.13;2.83;;;15.30;99.90;;;;;;5112294;28;20489;-92
2022/09/13 07:38:50;;;;;;;4.80;3.40;;;15.40;99.90;;;;;;5106382;28;21038;-93
2022/09/13 07:41:18;;;;;;;3.77;2.57;;;15.40;99.90;;;;;;5106943;28;20449;-88
2022/09/13 07:43:46;;;;;;;3.00;2.80;;;15.50;99.90;;;;;;5105007;28;20515;-93
2022/09/13 07:46:15;;;;;;;2.83;2.63;;;15.70;99.90;;;;;;5099920;27;20518;-91
2022/09/13 07:48:45;;;;;;;4.20;2.60;;;16.00;99.90;;;;;;5099002;28;20456;-90
2022/09/13 07:51:14;;;;;;;3.57;3.27;;;16.10;99.90;;;;;;5113434;27;20488;-89
2022/09/13 07:53:43;;;;;;;2.80;2.60;;;16.30;99.90;;;;;;5110154;27;20525;-89
2022/09/13 07:56:12;;;;;;;3.40;3.10;;;16.40;99.90;;;;;;5096262;28;20795;-91
2022/09/13 07:58:40;;;;;;;3.27;3.00;;;16.40;99.90;;;;;;5102453;27;20487;-90
2022/09/13 08:01:09;;;;;;;4.23;2.93;;;16.20;99.90;;;;;;5096542;27;20454;-89
2022/09/13 08:03:37;;;;;;;5.43;3.60;;;16.40;99.90;;;;;;5107138;27;20511;-90
2022/09/13 08:06:07;;;;;;;2.97;2.33;;;16.50;99.90;;;;;;5108282;27;20464;-92
2022/09/13 08:08:35;;;;;;;3.90;3.50;;;16.70;99.90;;;;;;5097398;27;20473;-89
2022/09/13 08:11:04;;;;;;;4.00;3.50;;;16.60;99.90;;;;;;5098813;27;20485;-89
2022/09/13 08:13:32;;;;;;;4.20;3.90;;;16.80;99.90;;;;;;5108965;27;21179;-89
2022/09/13 08:16:02;;;;;;;4.90;4.40;;;17.00;99.90;;;;;;5126801;28;20454;-89
2022/09/13 08:18:29;;;;;;;4.80;4.00;;;16.90;99.90;;;;;;5128013;28;20466;-88
2022/09/13 08:20:57;;;;;;;5.33;4.23;;;16.50;99.90;;;;;;5130041;28;20471;-88
2022/09/13 08:23:26;;;;;;;3.73;3.47;;;16.50;99.90;;;;;;5125411;28;20492;-89
2022/09/13 08:25:53;;;;;;;4.23;3.77;;;16.50;99.90;;;;;;5095383;27;20508;-88
2022/09/13 08:28:22;;;;;;;8.70;4.33;;;16.80;99.90;;;;;;5102629;28;20824;-87
2022/09/13 08:30:49;;;;;;;9.13;4.40;;;16.90;99.90;;;;;;5100017;28;20497;-88
2022/09/13 08:33:16;;;;;;;5.47;4.97;;;16.90;99.90;;;;;;5104741;27;20886;-86
2022/09/13 08:35:51;;;;;;;4.57;4.00;;;16.80;99.90;;;;;;5105773;27;20552;-83
2022/09/13 08:38:19;;;;;;;4.00;3.60;;;16.60;99.90;;;;;;5115007;27;20436;-83
2022/09/13 08:40:52;;;;;;;4.87;3.97;;;16.80;99.90;;;;;;5109332;27;20453;-85
2022/09/13 08:43:28;;;;;;;3.93;3.63;;;17.10;99.90;;;;;;5111264;27;20479;-83
2022/09/13 08:46:02;;;;;;;4.30;4.00;;;17.30;99.90;;;;;;5096419;27;20453;-83
2022/09/13 08:48:34;;;;;;;7.13;5.07;;;17.30;99.90;;;;;;5099119;27;20928;-84
2022/09/13 08:51:07;;;;;;;5.57;5.07;;;17.40;99.90;;;;;;5117812;27;21108;-83
2022/09/13 08:53:41;;;;;;;4.83;4.47;;;17.50;99.90;;;;;;5111100;27;20522;-85
2022/09/13 08:56:12;;;;;;;5.33;4.93;;;17.20;99.90;;;;;;5099973;27;20462;-85
2022/09/13 08:59:00;;;;;;;6.90;6.30;;;17.30;99.90;;;;;;5095320;27;20447;-82
2022/09/13 09:01:38;;;;;;;5.30;4.90;;;17.50;99.90;;;;;;5105122;27;20457;-83
2022/09/13 09:04:55;;;;;;;5.23;4.40;;;17.50;99.90;;;;;;5106750;27;20473;-85
2022/09/13 09:07:26;;;;;;;4.10;3.80;;;17.50;99.90;;;;;;5096809;27;20447;-86
2022/09/13 09:09:56;;;;;;;3.70;3.40;;;17.40;99.90;;;;;;5097818;28;20485;-89
2022/09/13 09:12:34;;;;;;;5.57;5.07;;;17.50;99.90;;;;;;5094817;27;20466;-83
2022/09/13 09:15:06;;;;;;;5.10;4.63;;;17.50;99.90;;;;;;5103058;27;20458;-84
2022/09/13 09:17:46;;;;;;;4.03;3.73;;;17.50;99.90;;;;;;5110409;27;20473;-86
2022/09/13 09:20:23;;;;;;;6.13;5.50;;;17.80;99.90;;;;;;5112257;27;20959;-83
2022/09/13 09:22:53;;;;;;;5.83;4.70;;;17.80;99.90;;;;;;5105565;27;20474;-84
2022/09/13 09:25:24;;;;;;;5.87;5.37;;;17.80;99.90;;;;;;5101371;28;20489;-83
2022/09/13 09:27:53;;;;;;;4.27;3.87;;;18.00;99.90;;;;;;5100945;27;20461;-85
2022/09/13 09:30:20;;;;;;;4.20;3.90;;;17.90;99.90;;;;;;5114360;27;20485;-84
2022/09/13 09:33:09;;;;;;;3.97;3.67;;;18.00;99.90;;;;;;5106954;27;20454;-84
2022/09/13 09:35:53;;;;;;;6.40;4.07;;;18.30;99.90;;;;;;5103089;27;20470;-85
2022/09/13 09:38:34;;;;;;;4.00;3.70;;;18.40;99.90;;;;;;5107171;27;20472;-85
2022/09/13 09:41:05;;;;;;;3.27;3.07;;;18.50;99.90;;;;;;5105838;27;20465;-87
2022/09/13 09:43:38;;;;;;;6.37;2.60;;;18.80;99.90;;;;;;5108155;27;21439;-85
2022/09/13 09:46:09;;;;;;;4.33;3.93;;;19.00;99.90;;;;;;5096876;27;20474;-85
2022/09/13 09:48:41;;;;;;;3.80;3.50;;;19.10;99.90;;;;;;5111354;27;20449;-85
2022/09/13 09:51:10;;;;;;;3.70;3.40;;;19.40;99.90;;;;;;5095838;27;20495;-86
2022/09/13 09:53:42;;;;;;;3.63;3.33;;;19.50;99.90;;;;;;5109312;27;20459;-86
2022/09/13 09:56:21;;;;;;;4.27;3.87;;;19.60;99.90;;;;;;5093372;27;20464;-86
2022/09/13 09:58:51;;;;;;;3.87;3.60;;;19.20;99.90;;;;;;5100306;27;20464;-88
2022/09/13 10:01:24;;;;;;;3.27;3.07;;;19.50;99.90;;;;;;5092528;27;20451;-88
2022/09/13 10:03:54;;;;;;;2.37;2.23;;;19.70;99.90;;;;;;5093853;28;20481;-83
2022/09/13 10:06:24;;;;;;;4.37;3.70;;;19.70;99.90;;;;;;5094250;28;20458;-85
2022/09/13 10:08:59;;;;;;;3.27;2.93;;;19.90;99.90;;;;;;5092333;28;20453;-86
2022/09/13 10:11:43;;;;;;;3.17;2.97;;;20.10;99.90;;;;;;5107502;27;20850;-87
2022/09/13 10:14:32;;;;;;;3.57;3.27;;;20.30;99.90;;;;;;5100284;28;20438;-87
2022/09/13 10:17:04;;;;;;;3.10;2.90;;;20.20;99.90;;;;;;5110921;27;20450;-86
2022/09/13 10:19:32;;;;;;;3.70;2.73;;;20.40;99.90;;;;;;5100973;27;20965;-86
2022/09/13 10:22:04;;;;;;;4.50;3.03;;;20.40;99.90;;;;;;5100280;27;20839;-86
2022/09/13 10:24:31;;;;;;;3.70;3.40;;;20.50;99.90;;;;;;5089119;27;20556;-87
2022/09/13 10:26:59;;;;;;;4.20;3.67;;;20.30;99.90;;;;;;5091455;28;20510;-87
2022/09/13 10:29:28;;;;;;;3.13;2.87;;;20.20;99.90;;;;;;5103583;27;20478;-85
2022/09/13 10:32:00;;;;;;;2.83;2.50;;;20.20;99.90;;;;;;5107223;27;20492;-85
2022/09/13 10:34:30;;;;;;;3.50;3.30;;;20.30;99.90;;;;;;5099043;28;20986;-87
2022/09/13 10:36:59;;;;;;;2.83;2.53;;;20.30;99.90;;;;;;5090072;27;20479;-86
2022/09/13 10:39:29;;;;;;;2.50;2.37;;;20.50;99.90;;;;;;5103972;27;21012;-85
2022/09/13 10:42:00;;;;;;;4.23;2.70;;;20.50;99.90;;;;;;5113639;27;20449;-87
2022/09/13 10:44:40;;;;;;;3.53;2.60;;;20.60;99.90;;;;;;5099703;27;20457;-85
2022/09/13 10:47:12;;;;;;;2.60;2.40;;;20.90;99.90;;;;;;5096317;28;20936;-87
2022/09/13 10:49:44;;;;;;;3.87;3.50;;;20.90;99.90;;;;;;5101823;28;20453;-86
2022/09/13 10:52:28;;;;;;;4.13;3.17;;;20.70;99.90;;;;;;5112716;27;20976;-87
2022/09/13 10:54:55;;;;;;;3.47;3.00;;;20.50;99.90;;;;;;5099804;28;20846;-84
2022/09/13 10:57:33;;;;;;;4.03;3.67;;;20.60;99.90;;;;;;5096557;28;20518;-84
2022/09/13 11:00:01;;;;;;;3.77;3.50;;;20.40;99.90;;;;;;5100306;28;20454;-85
2022/09/13 11:02:58;;;;;;;2.80;2.60;;;20.50;99.90;;;;;;5101418;28;20458;-85
2022/09/13 11:05:28;;;;;;;2.80;2.60;;;20.60;99.90;;;;;;5102723;28;21105;-84
2022/09/13 11:08:13;;;;;;;2.23;2.10;;;20.50;99.90;;;;;;5099461;27;20461;-84
2022/09/13 11:10:50;;;;;;;2.50;2.30;;;20.70;99.90;;;;;;5099520;28;20914;-85
2022/09/13 11:13:26;;;;;;;2.77;2.40;;;21.00;99.90;;;;;;5102810;28;20507;-83
2022/09/13 11:16:02;;;;;;;2.97;2.30;;;21.10;99.90;;;;;;5094045;28;20451;-86
2022/09/13 11:18:47;;;;;;;2.73;2.40;;;21.00;99.90;;;;;;5114485;27;20505;-85
2022/09/13 11:21:35;;;;;;;2.73;2.53;;;21.30;99.90;;;;;;5117022;27;20518;-85
2022/09/13 11:24:27;;;;;;;2.90;2.37;;;21.20;99.90;;;;;;5127299;28;20519;-86
2022/09/13 11:27:03;;;;;;;3.10;2.90;;;21.30;99.90;;;;;;5116566;27;20459;-86
2022/09/13 11:29:50;;;;;;;3.17;2.30;;;21.40;99.90;;;;;;5105795;27;20482;-85
2022/09/13 11:32:32;;;;;;;2.90;2.30;;;21.50;99.90;;;;;;5115295;27;20478;-84
2022/09/13 11:35:19;;;;;;;3.97;2.00;;;21.50;99.90;;;;;;5111677;27;20446;-85
2022/09/13 11:37:54;;;;;;;1.70;1.60;;;21.20;99.90;;;;;;5110184;27;20461;-84
2022/09/13 11:40:42;;;;;;;1.90;1.80;;;21.40;99.90;;;;;;5120333;27;20440;-86
2022/09/13 11:43:24;;;;;;;2.40;2.30;;;21.50;99.90;;;;;;5114638;27;20462;-84
2022/09/13 11:46:01;;;;;;;1.90;1.80;;;21.70;99.90;;;;;;5098751;27;20869;-85
2022/09/13 11:49:01;;;;;;;2.10;2.00;;;21.90;99.90;;;;;;5094684;27;20904;-87
2022/09/13 11:51:39;;;;;;;5.30;2.50;;;21.80;99.90;;;;;;5093524;27;20470;-85
2022/09/13 11:54:21;;;;;;;3.83;2.50;;;22.00;99.90;;;;;;5094877;28;20949;-86
2022/09/13 11:56:51;;;;;;;1.63;1.53;;;22.10;99.90;;;;;;5101397;27;20463;-85
2022/09/13 11:59:28;;;;;;;1.73;1.47;;;21.90;99.90;;;;;;5093962;27;20500;-86
2022/09/13 12:02:00;;;;;;;2.83;1.53;;;22.00;99.90;;;;;;5103079;27;20818;-85
2022/09/13 12:04:33;;;;;;;1.63;1.50;;;21.80;99.90;;;;;;5108409;27;20457;-84
2022/09/13 12:07:08;;;;;;;1.57;1.47;;;21.70;99.90;;;;;;5100464;27;20788;-85
2022/09/13 12:09:40;;;;;;;4.03;1.40;;;22.00;99.90;;;;;;5106376;27;20469;-86
2022/09/13 12:12:10;;;;;;;2.00;1.90;;;22.10;99.90;;;;;;5101291;27;20528;-85
2022/09/13 12:14:50;;;;;;;2.10;1.67;;;21.90;99.90;;;;;;5101435;27;20970;-85
2022/09/13 12:17:26;;;;;;;1.70;1.53;;;22.10;99.90;;;;;;5107391;27;20515;-88
2022/09/13 12:19:56;;;;;;;2.53;2.33;;;22.10;99.90;;;;;;5095219;27;20523;-85
2022/09/13 12:22:27;;;;;;;2.73;1.87;;;22.30;99.90;;;;;;5099548;27;20506;-85
2022/09/13 12:24:58;;;;;;;2.43;1.40;;;22.20;99.90;;;;;;5093430;28;20459;-83
2022/09/13 12:27:30;;;;;;;1.90;1.57;;;22.40;99.90;;;;;;5091058;27;20450;-85
2022/09/13 12:30:06;;;;;;;2.80;1.50;;;22.60;99.90;;;;;;5110335;27;21179;-87
2022/09/13 12:32:33;;;;;;;1.57;1.47;;;23.00;99.90;;;;;;5094055;27;20482;-84
2022/09/13 12:35:05;;;;;;;2.03;1.50;;;22.90;99.90;;;;;;5095011;27;20504;-85
2022/09/13 12:38:04;;;;;;;1.90;1.70;;;23.30;99.90;;;;;;5098260;27;20446;-85
2022/09/13 12:40:46;;;;;;;3.30;1.63;;;23.80;99.90;;;;;;5109837;27;20483;-85
2022/09/13 12:43:42;;;;;;;2.23;1.60;;;24.00;99.90;;;;;;5098815;27;20462;-84
2022/09/13 12:46:36;;;;;;;2.07;1.67;;;24.10;99.90;;;;;;5105066;27;20462;-86
2022/09/13 12:49:26;;;;;;;1.50;1.40;;;24.00;99.70;;;;;;5094771;27;20928;-85
2022/09/13 12:52:23;;;;;;;1.73;1.63;;;24.10;98.30;;;;;;5107625;27;20489;-85
2022/09/13 12:55:29;;;;;;;1.40;1.30;;;24.60;99.50;;;;;;5092629;27;20481;-84
2022/09/13 12:58:05;;;;;;;1.27;1.27;;;24.00;98.80;;;;;;5100584;28;20446;-86
2022/09/13 13:00:38;;;;;;;2.70;2.03;;;23.60;99.70;;;;;;5098224;27;20506;-85
2022/09/13 13:03:14;;;;;;;1.60;1.50;;;23.70;99.30;;;;;;5105676;27;20442;-85
2022/09/13 13:05:44;;;;;;;2.10;1.50;;;23.70;98.30;;;;;;5111149;27;20491;-87
2022/09/13 13:08:28;;;;;;;1.40;1.30;;;23.90;98.30;;;;;;5105701;27;20518;-87
2022/09/13 13:11:06;;;;;;;3.80;1.10;;;24.00;99.90;;;;;;5097824;27;20700;-86
2022/09/13 13:13:36;;;;;;;1.20;1.20;;;24.40;99.90;;;;;;5109264;27;20979;-87
2022/09/13 13:16:21;;;;;;;1.53;1.00;;;24.40;98.80;;;;;;5096139;27;20433;-85